Fargo, ND (58103)

4:07 PM CST on February 22, 2017 (GMT -0600)
| | Change Station
Active Advisory: Flood Warning

Elev -9999 ft 0.00 °N, 0.00 °E | Updated 3 minutes ago

Snow
Snow
°F
Feels Like °F
N
Wind Variable Wind from North
Gusts mph

Today
High -- | Low -- °F
--% Chance of Precip.
Yesterday
High -- | Low -- °F
Precip. -- in
Pressure 29.81 in
Visibility 3.0 miles
Clouds Mostly Cloudy 1000 ft
Overcast 1500 ft
Dew Point Not available.
Humidity Not available.
Rainfall --
Snow Depth Not available.
7:19 AM 6:03 PM
Waning Crescent, 15% visible
METAR KFAR 222153Z 35019KT 3SM -SN BR BKN010 OVC015 02/01 A2977 RMK AO2 SLP092 P0000 T00170006
Pressure 29.81 in
Visibility 3.0 miles
Clouds Mostly Cloudy 1000 ft
Overcast 1500 ft
Dew Point Not available.
Humidity Not available.
Rainfall --
Snow Depth Not available.
7:19 AM 6:03 PM
Waning Crescent, 15% visible
METAR KFAR 222153Z 35019KT 3SM -SN BR BKN010 OVC015 02/01 A2977 RMK AO2 SLP092 P0000 T00170006

Get Your Daily Forecast Email!

Thanks for signing up!

Be on the lookout for a verification email in your inbox.

You'll start receiving the daily forecast at 8 AM.

×

10-Day Weather Forecast

Almanac

Astronomy

Feb. 22, 2017 Rise Set
Actual Time
Civil Twilight
Nautical Twilight
Astronomical Twilight
Moon
Length of Visible Light
Length of Day
Tomorrow will be .
, % of the Moon is Illuminated

Today's Extremes

State Highs State Lows

Community

WunderPhotos

Upload Photos

1,962,540 photos uploaded!

WunderBlog® & News

Nearby

Air Quality

  Air Quality AQ Index Pollutant
Not available.

Snow Depth

Station Depth Elevation

Earthquake Activity

City Distance Mag. Time & Date
Minimum magnitude displayed is 2.5.

Coastal Water Temperatures

Place Temperature

Stations

Nearby Weather Stations

Station Location Temp. Windchill Dew Point Humidity Wind Precip. Elev Updated Type
                   

Watches & Warnings

Flood Warning
Issued: 11:01 AM CST Feb. 22, 2017 – National Weather Service

The Flood Warning continues for...
* ... Fargo... on the Red River.
* Until Tuesday evening or until the warning is cancelled.
* At 10:15 am Wednesday the stage was 20.7 feet.
* Minor flooding is occurring and during the next 7 days minor
flooding is forecast.
* Minor flood stage is 18.0 feet.
* Forecast... the river will rise to a crest near 21.7 feet sometime
Friday early afternoon. The river will fall below flood stage
Monday early afternoon.
* Impact statement(s) - at 22.0 feet, Fargo... North Broadway bridge
is closed.


Daily 7am CDT/6am CST forecast stage in feet:

date Thu Fri Sat sun Mon Tue Wed
(month/day) 02/23 02/24 02/25 02/26 02/27 02/28 03/01

Red River
Fargo 21.3 21.6 21.3 20.0 18.5 17.3 16.8


Lat... Lon 4715 9673 4724 9683 4724 9694 4676 9689 4677 9671